createdAt,value
2018-11-03T00:00:28.342Z,4.60
2018-11-03T00:05:19.329Z,4.40
2018-11-03T00:10:10.242Z,4.83
2018-11-03T00:15:01.234Z,4.40
2018-11-03T00:19:52.145Z,4.60
2018-11-03T00:24:43.869Z,4.20
2018-11-03T00:29:35.572Z,4.93
2018-11-03T00:34:27.300Z,4.83
2018-11-03T00:39:18.239Z,4.07
2018-11-03T00:44:09.212Z,5.13
2018-11-03T00:49:00.663Z,5.10
2018-11-03T00:53:52.401Z,3.50
2018-11-03T00:58:44.045Z,4.80
2018-11-03T01:03:35.050Z,4.40
2018-11-03T01:08:26.021Z,4.37
2018-11-03T01:13:17.679Z,4.43
2018-11-03T01:18:08.599Z,4.33
2018-11-03T01:22:59.516Z,4.53
2018-11-03T01:27:50.436Z,4.47
2018-11-03T01:32:41.434Z,3.90
2018-11-03T01:37:33.016Z,4.20
2018-11-03T01:42:23.962Z,4.03
2018-11-03T01:47:14.849Z,3.60
2018-11-03T01:52:05.753Z,4.10
2018-11-03T01:56:56.677Z,4.43
2018-11-03T02:01:47.592Z,4.80
2018-11-03T02:06:38.506Z,4.10
2018-11-03T02:11:29.424Z,4.40
2018-11-03T02:16:20.349Z,4.57
2018-11-03T02:21:11.281Z,4.43
2018-11-03T02:26:02.196Z,4.60
2018-11-03T02:30:53.118Z,4.50
2018-11-03T02:35:44.037Z,4.63
2018-11-03T02:40:34.972Z,4.07
2018-11-03T02:45:25.885Z,5.20
2018-11-03T02:50:16.841Z,4.80
2018-11-03T02:55:07.769Z,4.10
2018-11-03T02:59:58.691Z,4.80
2018-11-03T03:04:49.587Z,4.23
2018-11-03T03:09:40.515Z,5.03
2018-11-03T03:14:31.504Z,4.60
2018-11-03T03:19:23.164Z,4.90
2018-11-03T03:24:14.818Z,4.73
2018-11-03T03:29:05.774Z,5.10
2018-11-03T03:33:56.649Z,4.40
2018-11-03T03:38:47.565Z,5.27
2018-11-03T03:43:38.501Z,5.10
2018-11-03T03:48:30.960Z,5.30
2018-11-03T03:53:21.876Z,5.57
2018-11-03T03:58:12.775Z,5.57
2018-11-03T04:03:03.680Z,5.50
2018-11-03T04:07:54.613Z,4.70
2018-11-03T04:12:46.265Z,5.73
2018-11-03T04:17:37.168Z,6.27
2018-11-03T04:22:28.823Z,5.13
2018-11-03T04:27:20.489Z,5.00
2018-11-03T04:32:11.470Z,5.57
2018-11-03T04:37:02.424Z,5.83
2018-11-03T04:41:53.406Z,5.70
2018-11-03T04:46:44.327Z,6.27
2018-11-03T04:51:35.249Z,5.73
2018-11-03T04:56:26.927Z,5.43
2018-11-03T05:01:17.854Z,5.37
2018-11-03T05:06:08.850Z,6.60
2018-11-03T05:10:59.819Z,6.20
2018-11-03T05:15:50.750Z,5.53
2018-11-03T05:20:41.664Z,6.37
2018-11-03T05:25:32.617Z,6.53
2018-11-03T05:30:23.525Z,6.20
2018-11-03T05:35:14.434Z,6.63
2018-11-03T05:40:06.121Z,6.90
2018-11-03T05:44:57.071Z,6.27
2018-11-03T05:49:48.737Z,5.90
2018-11-03T05:54:39.723Z,6.47
2018-11-03T05:59:30.645Z,6.43
2018-11-03T06:04:21.579Z,6.20
2018-11-03T06:09:12.508Z,6.80
2018-11-03T06:14:03.425Z,6.80
2018-11-03T06:18:54.344Z,6.77
2018-11-03T06:23:45.309Z,6.40
2018-11-03T06:28:36.311Z,7.47
2018-11-03T06:33:27.374Z,7.30
2018-11-03T06:38:18.292Z,6.17
2018-11-03T06:43:09.205Z,7.20
2018-11-03T06:48:00.668Z,6.17
2018-11-03T06:52:51.573Z,6.60
2018-11-03T06:57:42.509Z,6.30
2018-11-03T07:02:33.449Z,6.43
2018-11-03T07:07:24.460Z,6.60
2018-11-03T07:12:16.196Z,7.70
2018-11-03T07:17:07.079Z,6.90
2018-11-03T07:21:58.004Z,7.13
2018-11-03T07:26:50.405Z,6.90
2018-11-03T07:31:41.400Z,6.37
2018-11-03T07:36:32.309Z,6.70
2018-11-03T07:41:23.288Z,6.60
2018-11-03T07:46:14.891Z,7.10
2018-11-03T07:51:05.813Z,7.50
2018-11-03T07:55:56.769Z,7.40
2018-11-03T08:00:47.682Z,7.77
2018-11-03T08:05:39.345Z,7.20
2018-11-03T08:10:30.281Z,6.43
2018-11-03T08:15:21.954Z,6.87
2018-11-03T08:20:12.872Z,8.03
2018-11-03T08:25:03.788Z,7.20
2018-11-03T08:29:54.703Z,7.10
2018-11-03T08:34:46.365Z,7.30
2018-11-03T08:39:37.421Z,7.00
2018-11-03T08:44:28.281Z,7.40
2018-11-03T08:49:19.216Z,8.10
2018-11-03T08:54:10.132Z,7.33
2018-11-03T08:59:01.826Z,7.90
2018-11-03T09:03:53.484Z,7.57
2018-11-03T09:08:44.408Z,8.00
2018-11-03T09:13:36.083Z,8.37
2018-11-03T09:18:27.009Z,8.27
2018-11-03T09:23:18.682Z,8.03
2018-11-03T09:28:09.620Z,8.83
2018-11-03T09:33:00.536Z,8.23
2018-11-03T09:37:51.465Z,8.40
2018-11-03T09:42:42.450Z,8.13
2018-11-03T09:47:33.412Z,9.30
2018-11-03T09:52:24.359Z,8.83
2018-11-03T09:57:15.390Z,7.93
2018-11-03T10:02:07.040Z,9.60
2018-11-03T10:06:57.994Z,10.77
2018-11-03T10:11:48.927Z,9.30
2018-11-03T10:16:39.846Z,10.27
2018-11-03T10:21:30.781Z,10.33
2018-11-03T10:26:22.453Z,11.43
2018-11-03T10:31:13.394Z,10.20
2018-11-03T10:36:05.103Z,10.87
2018-11-03T10:40:56.779Z,11.03
2018-11-03T10:45:47.685Z,11.20
2018-11-03T10:50:39.355Z,11.70
2018-11-03T10:55:30.360Z,10.43
2018-11-03T11:00:21.518Z,11.00
2018-11-03T11:05:18.532Z,11.00
2018-11-03T11:10:09.531Z,11.43
2018-11-03T11:15:00.447Z,9.30
2018-11-03T11:19:51.364Z,10.27
2018-11-03T11:24:42.411Z,8.90
2018-11-03T11:29:33.295Z,8.90
2018-11-03T11:34:24.952Z,9.40
2018-11-03T11:39:15.894Z,8.93
2018-11-03T11:44:06.843Z,8.43
2018-11-03T11:48:57.776Z,7.90
2018-11-03T11:53:48.667Z,7.73
2018-11-03T11:58:40.323Z,8.07
2018-11-03T12:03:31.267Z,7.20
2018-11-03T12:08:23.010Z,7.27
2018-11-03T12:13:13.980Z,6.07
2018-11-03T12:18:04.912Z,7.20
2018-11-03T12:22:56.571Z,6.60
2018-11-03T12:27:47.533Z,6.57
2018-11-03T12:32:38.485Z,7.03
2018-11-03T12:37:29.447Z,6.37
2018-11-03T12:42:20.371Z,6.23
2018-11-03T12:47:11.317Z,5.50
2018-11-03T12:52:02.963Z,6.33
2018-11-03T12:56:53.949Z,6.10
2018-11-03T13:01:44.848Z,5.30
2018-11-03T13:06:35.802Z,5.70
2018-11-03T13:11:27.453Z,5.90
2018-11-03T13:16:18.375Z,5.20
2018-11-03T13:21:09.330Z,5.37
2018-11-03T13:26:00.287Z,4.67
2018-11-03T13:30:51.180Z,4.77
2018-11-03T13:35:42.841Z,4.10
2018-11-03T13:40:33.818Z,3.43
2018-11-03T13:45:24.820Z,3.60
2018-11-03T13:50:15.754Z,3.77
2018-11-03T13:55:07.438Z,3.73
2018-11-03T13:59:59.072Z,3.60
2018-11-03T14:04:50.026Z,3.90
2018-11-03T14:09:41.176Z,4.03
2018-11-03T14:14:32.066Z,3.03
2018-11-03T14:19:22.972Z,3.00
2018-11-03T14:24:14.643Z,3.23
2018-11-03T14:29:05.627Z,3.10
2018-11-03T14:33:56.465Z,2.50
2018-11-03T14:38:47.398Z,3.10
2018-11-03T14:43:38.321Z,2.87
2018-11-03T14:48:30.263Z,3.63
2018-11-03T14:53:21.217Z,2.50
2018-11-03T14:58:12.857Z,3.10
2018-11-03T15:03:03.778Z,2.93
2018-11-03T15:07:54.691Z,2.60
2018-11-03T15:12:45.636Z,3.00
2018-11-03T15:17:37.298Z,2.60
2018-11-03T15:22:28.301Z,3.10
2018-11-03T15:27:19.154Z,2.70
2018-11-03T15:32:10.805Z,2.90
2018-11-03T15:37:01.694Z,2.50
2018-11-03T15:41:52.613Z,2.53
2018-11-03T15:46:44.258Z,2.20
2018-11-03T15:51:35.147Z,2.77
2018-11-03T15:56:26.063Z,2.07
2018-11-03T16:01:17.015Z,2.10
2018-11-03T16:06:08.737Z,2.53
2018-11-03T16:10:59.623Z,2.63
2018-11-03T16:15:50.508Z,2.60
2018-11-03T16:20:42.197Z,2.40
2018-11-03T16:25:33.162Z,2.80
2018-11-03T16:30:24.096Z,2.50
2018-11-03T16:35:15.008Z,2.50
2018-11-03T16:40:05.921Z,2.30
2018-11-03T16:44:57.621Z,2.70
2018-11-03T16:49:48.652Z,3.33
2018-11-03T16:54:40.287Z,2.70
2018-11-03T16:59:31.228Z,2.80
2018-11-03T17:04:22.265Z,2.63
2018-11-03T17:09:13.165Z,3.13
2018-11-03T17:14:04.445Z,2.60
2018-11-03T17:18:55.491Z,2.90
2018-11-03T17:23:47.132Z,2.70
2018-11-03T17:28:38.080Z,3.00
2018-11-03T17:33:30.616Z,3.63
2018-11-03T17:38:21.676Z,3.17
2018-11-03T17:43:12.645Z,3.17
2018-11-03T17:48:03.625Z,4.47
2018-11-03T17:52:54.627Z,3.50
2018-11-03T17:57:46.277Z,3.57
2018-11-03T18:02:37.245Z,4.20
2018-11-03T18:07:28.904Z,4.00
2018-11-03T18:12:19.912Z,4.93
2018-11-03T18:17:10.937Z,5.90
2018-11-03T18:22:01.952Z,5.03
2018-11-03T18:26:52.891Z,4.97
2018-11-03T18:31:44.640Z,5.40
2018-11-03T18:36:36.353Z,4.93
2018-11-03T18:41:27.386Z,4.80
2018-11-03T18:46:18.375Z,4.20
2018-11-03T18:51:09.371Z,4.93
2018-11-03T18:56:00.458Z,4.50
2018-11-03T19:00:51.498Z,5.07
2018-11-03T19:05:43.200Z,4.40
2018-11-03T19:10:34.912Z,4.10
2018-11-03T19:15:25.919Z,5.00
2018-11-03T19:20:17.652Z,4.80
2018-11-03T19:25:08.578Z,4.00
2018-11-03T19:29:59.540Z,4.50
2018-11-03T19:34:51.206Z,4.37
2018-11-03T19:39:42.233Z,4.90
2018-11-03T19:44:33.971Z,4.50
2018-11-03T19:49:25.613Z,4.23
2018-11-03T19:54:16.600Z,5.07
2018-11-03T19:59:08.258Z,5.20
2018-11-03T20:03:59.177Z,5.53
2018-11-03T20:08:50.152Z,5.40
2018-11-03T20:13:41.065Z,5.40
2018-11-03T20:18:32.045Z,4.63
2018-11-03T20:23:22.958Z,5.87
2018-11-03T20:28:13.891Z,5.20
2018-11-03T20:33:04.901Z,5.03
2018-11-03T20:37:55.860Z,5.43
2018-11-03T20:42:46.788Z,5.43
2018-11-03T20:47:37.802Z,5.57
2018-11-03T20:52:28.763Z,5.07
2018-11-03T20:57:20.504Z,4.83
2018-11-03T21:02:11.536Z,5.60
2018-11-03T21:07:02.476Z,6.73
2018-11-03T21:11:54.111Z,5.10
2018-11-03T21:16:45.098Z,5.73
2018-11-03T21:21:36.039Z,6.67
2018-11-03T21:26:27.753Z,6.40
2018-11-03T21:31:19.461Z,5.97
2018-11-03T21:36:11.132Z,5.93
2018-11-03T21:41:02.119Z,5.80
2018-11-03T21:45:53.071Z,6.10
2018-11-03T21:50:44.809Z,6.10
2018-11-03T21:55:35.807Z,6.27
2018-11-03T22:00:26.766Z,5.93
2018-11-03T22:05:17.741Z,5.60
2018-11-03T22:10:08.702Z,6.73
2018-11-03T22:15:00.412Z,6.13
2018-11-03T22:19:51.397Z,6.23
2018-11-03T22:24:42.329Z,7.30
2018-11-03T22:29:33.345Z,6.30
2018-11-03T22:34:25.045Z,5.77
2018-11-03T22:39:15.987Z,7.43
2018-11-03T22:44:06.964Z,7.23
2018-11-03T22:48:57.941Z,6.87
2018-11-03T22:53:49.672Z,7.23
2018-11-03T22:58:40.692Z,6.73
2018-11-03T23:03:31.650Z,7.00
2018-11-03T23:08:22.581Z,7.33
2018-11-03T23:13:13.628Z,7.87
2018-11-03T23:18:04.497Z,6.83
2018-11-03T23:22:55.454Z,7.30
2018-11-03T23:28:02.154Z,8.30
2018-11-03T23:32:53.139Z,8.27
2018-11-03T23:37:44.062Z,7.43
2018-11-03T23:42:35.009Z,8.17
2018-11-03T23:47:26.095Z,7.67
2018-11-03T23:52:17.003Z,8.00
2018-11-03T23:57:07.913Z,7.80
